logo
Search for airport 
image banner adimage banner adimage banner ad
image banner ad

NFTV - Vavau

Located in Nelafu, Tonga

ICAO - NFTV, IATA - VAV

Data provided by Airmate  

General information

Coordinates: S18°35'8" W173°58'5"
Elevation is 233 feet MSL.
 
View others Airports in Vava'

Operational data

Special qualification required
Current time UTC:
Current local time:
Weather
TAF: TAF NFTV 241729Z 2418/2518 33008KT 9999 FEW018
View NOTAMs / SUP AIP / TFR affecting this airport [VIEW]
Communications frequencies: [VIEW]

Runways:

RWY identifierQFULength (ft)Width (ft)SurfaceLDA (ft)
08557798BITUM
26557798BITUM

Airport contact information

Address: Nelafu Tonga

Satellite view of NFTV